Time;durP1;ratioP1;P1;durP2;ratioP2;P2;SDS_P1;SDS_P2;PMS_P1;PMS_P2;Temp;Humidity;BMP_temperature;BMP_pressure;BME280_temperature;BME280_humidity;BME280_pressure;Samples;Min_cycle;Max_cycle;Signal;HPM_P1;HPM_P2
2021/12/06 00:01:01;;;;;;;32.67;5.65;;;;;;;22.80;52.05;98708.75;7306706;19;129322;-46
2021/12/06 00:03:36;;;;;;;40.03;6.13;;;;;;;22.72;51.73;98700.91;7312211;19;129147;-49
2021/12/06 00:06:02;;;;;;;10.82;2.60;;;;;;;22.77;51.80;98706.47;7313024;19;129160;-46
2021/12/06 00:08:27;;;;;;;18.35;3.67;;;;;;;22.77;51.56;98706.47;7314527;19;129900;-49
2021/12/06 00:10:53;;;;;;;17.70;3.55;;;;;;;22.84;51.51;98702.19;7308903;19;130714;-49
2021/12/06 00:13:22;;;;;;;35.95;5.70;;;;;;;22.83;51.43;98690.06;7311878;19;129733;-54
2021/12/06 00:15:49;;;;;;;25.48;4.60;;;;;;;23.02;50.78;98708.81;7309050;19;130261;-51
2021/12/06 00:18:16;;;;;;;21.45;3.97;;;;;;;23.10;50.84;98710.59;7311473;19;130667;-53
2021/12/06 00:20:41;;;;;;;20.65;3.55;;;;;;;23.21;50.64;98707.59;7307437;19;131598;-49
2021/12/06 00:23:06;;;;;;;16.15;3.10;;;;;;;23.35;50.41;98714.78;7311161;19;153985;-50
2021/12/06 00:25:32;;;;;;;21.30;3.92;;;;;;;23.46;49.70;98711.75;7298725;19;156604;-48
2021/12/06 00:27:57;;;;;;;18.33;3.22;;;;;;;23.57;49.77;98716.59;7311698;19;130112;-51
2021/12/06 00:30:22;;;;;;;23.40;4.05;;;;;;;23.68;49.72;98716.22;7302079;19;130086;-48
2021/12/06 00:32:48;;;;;;;22.95;3.58;;;;;;;23.75;48.96;98717.13;7312596;19;131050;-46
2021/12/06 00:35:19;;;;;;;17.70;3.15;;;;;;;23.76;49.21;98718.78;7303184;19;130503;-48
2021/12/06 00:37:58;;;;;;;19.60;3.53;;;;;;;23.72;48.90;98720.13;7310491;19;130791;-47
2021/12/06 00:40:27;;;;;;;22.98;3.63;;;;;;;23.65;49.95;98727.03;7305938;19;129268;-46
2021/12/06 00:42:52;;;;;;;27.20;4.20;;;;;;;23.57;50.00;98724.47;7311823;19;129241;-45
2021/12/06 00:45:18;;;;;;;39.10;5.35;;;;;;;23.50;50.25;98734.06;7301188;19;152705;-45
2021/12/06 00:47:44;;;;;;;21.47;3.50;;;;;;;23.47;50.31;98729.13;7311914;19;129141;-46
2021/12/06 00:50:09;;;;;;;37.83;5.73;;;;;;;23.40;50.09;98735.25;7309095;19;129316;-46
2021/12/06 00:52:34;;;;;;;31.50;4.45;;;;;;;23.31;50.47;98742.34;7310939;19;130401;-47
2021/12/06 00:55:00;;;;;;;57.30;7.97;;;;;;;23.21;50.84;98737.28;7306663;19;129059;-48
2021/12/06 00:57:26;;;;;;;28.40;4.43;;;;;;;23.20;51.12;98745.31;7306652;19;131203;-48
2021/12/06 00:59:51;;;;;;;12.75;2.80;;;;;;;23.04;50.66;98730.44;7311457;19;129616;-48
2021/12/06 01:02:18;;;;;;;29.10;4.07;;;;;;;23.05;51.54;98749.63;7306279;19;129837;-47
2021/12/06 01:04:46;;;;;;;19.35;3.33;;;;;;;23.06;51.75;98751.25;7309061;19;129566;-48
2021/12/06 01:07:12;;;;;;;17.85;3.03;;;;;;;23.04;51.70;98753.22;7309192;19;129811;-47
2021/12/06 01:09:38;;;;;;;28.30;4.00;;;;;;;23.00;51.54;98754.56;7312068;19;129481;-45
2021/12/06 01:12:04;;;;;;;16.90;3.33;;;;;;;22.99;51.53;98752.94;7301623;19;129475;-49
2021/12/06 01:14:30;;;;;;;29.55;4.55;;;;;;;22.92;51.79;98754.59;7308065;19;129975;-52
2021/12/06 01:16:55;;;;;;;25.92;4.00;;;;;;;22.93;52.27;98761.44;7301629;19;130912;-47
2021/12/06 01:19:27;;;;;;;27.90;4.40;;;;;;;22.90;51.82;98756.56;7311012;19;129040;-48
2021/12/06 01:22:07;;;;;;;18.02;3.40;;;;;;;22.83;51.87;98763.44;7307347;19;128912;-43
2021/12/06 01:24:40;;;;;;;33.88;4.68;;;;;;;22.73;51.74;98754.94;7308233;19;130641;-47
2021/12/06 01:39:11;;;;;;;31.25;4.30;;;;;;;22.92;51.61;98781.59;7300044;19;130047;-47
2021/12/06 01:40:31;;;;;;;31.10;4.57;;;;;;;22.84;51.50;98772.97;7310517;19;129016;-45
2021/12/06 01:42:57;;;;;;;20.38;3.63;;;;;;;23.06;50.96;98782.72;7309107;19;130613;-46
2021/12/06 01:45:22;;;;;;;25.63;4.45;;;;;;;23.01;51.29;98764.03;7302980;19;159444;-49
2021/12/06 01:47:47;;;;;;;7.35;2.63;;;;;;;23.14;51.37;98788.75;7303152;19;130026;-48
2021/12/06 01:50:20;;;;;;;16.73;3.65;;;;;;;23.29;51.05;98790.72;7309412;19;129884;-50
2021/12/06 01:52:52;;;;;;;20.45;3.63;;;;;;;23.37;50.63;98790.69;7312794;19;129272;-50
2021/12/06 01:55:22;;;;;;;18.45;3.28;;;;;;;23.47;49.91;98781.59;7307092;19;130621;-52
2021/12/06 01:57:48;;;;;;;22.50;3.83;;;;;;;23.48;50.47;98772.75;7302420;19;130913;-51
2021/12/06 02:00:30;;;;;;;17.33;3.40;;;;;;;23.53;49.82;98759.94;7310183;19;129392;-50
2021/12/06 02:02:55;;;;;;;14.07;3.13;;;;;;;23.74;49.24;98778.50;7304965;19;130100;-50
2021/12/06 02:05:21;;;;;;;20.83;3.67;;;;;;;23.76;49.69;98787.03;7306981;19;130065;-45
2021/12/06 02:07:46;;;;;;;36.30;5.43;;;;;;;23.73;49.71;98776.88;7301542;19;139320;-47
2021/12/06 02:10:11;;;;;;;17.05;3.17;;;;;;;23.67;49.97;98777.56;7310886;19;155487;-46
2021/12/06 02:12:37;;;;;;;39.53;6.40;;;;;;;23.68;49.83;98784.47;7307837;19;129518;-46
2021/12/06 02:15:11;;;;;;;3.88;2.08;;;;;;;23.58;49.86;98789.09;7308757;19;130437;-47
2021/12/06 02:17:41;;;;;;;32.40;5.07;;;;;;;23.49;50.45;98789.28;7309118;19;129920;-48
2021/12/06 02:20:20;;;;;;;12.38;2.97;;;;;;;23.39;50.76;98807.88;7309090;19;129272;-52
2021/12/06 02:22:46;;;;;;;16.67;3.30;;;;;;;23.34;50.20;98807.56;7315422;19;129733;-51
2021/12/06 02:25:15;;;;;;;8.13;2.25;;;;;;;23.25;50.52;98805.94;7304230;19;129487;-51
2021/12/06 02:27:42;;;;;;;15.00;2.90;;;;;;;23.24;50.68;98822.63;7313448;19;130326;-48
2021/12/06 02:30:09;;;;;;;20.98;3.65;;;;;;;23.18;51.57;98812.84;7305888;19;129812;-52
2021/12/06 02:32:35;;;;;;;18.65;3.45;;;;;;;23.10;51.37;98816.31;7313075;19;129068;-48
2021/12/06 02:35:02;;;;;;;19.90;3.55;;;;;;;23.05;51.79;98807.31;7304744;19;131660;-50
2021/12/06 02:37:33;;;;;;;23.33;4.53;;;;;;;23.03;51.95;98807.47;7308983;19;130304;-51
2021/12/06 02:40:00;;;;;;;16.58;3.40;;;;;;;22.98;52.14;98807.16;7309041;19;129990;-51
2021/12/06 02:42:25;;;;;;;;;;;;;;;22.95;51.73;98815.38;7312291;19;128822;-48
2021/12/06 02:44:51;;;;;;;13.95;3.00;;;;;;;23.00;51.95;98815.69;7306409;19;131849;-51
2021/12/06 02:47:18;;;;;;;18.53;3.60;;;;;;;22.92;51.41;98801.78;7311253;19;129605;-47
2021/12/06 02:49:44;;;;;;;64.93;9.52;;;;;;;23.00;51.30;98817.47;7307195;19;130974;-48
2021/12/06 02:52:11;;;;;;;12.73;3.27;;;;;;;23.02;51.27;98807.66;7310818;19;129084;-50
2021/12/06 02:54:38;;;;;;;17.63;3.50;;;;;;;23.03;51.85;98814.50;7309068;19;131245;-51
2021/12/06 02:57:19;;;;;;;13.38;2.97;;;;;;;23.09;51.34;98813.84;7310043;19;130208;-48
2021/12/06 02:59:46;;;;;;;23.85;4.05;;;;;;;23.16;51.03;98817.44;7317992;19;129263;-45
2021/12/06 03:02:15;;;;;;;14.57;3.40;;;;;;;23.22;50.72;98819.41;7313173;19;129134;-50
2021/12/06 03:04:41;;;;;;;20.58;4.43;;;;;;;23.29;51.05;98825.59;7317128;19;130401;-55
2021/12/06 03:07:08;;;;;;;13.63;3.23;;;;;;;23.41;50.69;98824.25;7313613;19;130590;-47
2021/12/06 03:09:37;;;;;;;19.17;3.72;;;;;;;23.47;50.16;98828.81;7319033;19;129166;-49
2021/12/06 03:12:09;;;;;;;24.15;4.25;;;;;;;23.54;49.96;98831.56;7312914;19;129220;-50
2021/12/06 03:14:41;;;;;;;17.80;3.67;;;;;;;23.58;50.24;98825.84;7317386;19;129695;-50
2021/12/06 03:17:10;;;;;;;23.85;4.55;;;;;;;23.66;49.69;98820.56;7312373;19;130649;-50
2021/12/06 03:19:35;;;;;;;20.65;4.03;;;;;;;23.72;49.90;98827.72;7318652;19;129139;-50
2021/12/06 03:22:01;;;;;;;15.75;3.72;;;;;;;23.80;49.09;98840.81;7315568;19;131062;-50
2021/12/06 03:24:26;;;;;;;18.08;3.58;;;;;;;23.73;49.34;98845.13;7315284;19;129226;-52
2021/12/06 03:26:53;;;;;;;15.88;3.63;;;;;;;23.68;49.43;98852.69;7312898;19;158250;-48
2021/12/06 03:29:19;;;;;;;21.60;3.97;;;;;;;23.62;50.03;98853.34;7317380;19;129690;-47
2021/12/06 03:31:47;;;;;;;19.83;4.27;;;;;;;23.55;49.79;98849.78;7316901;19;128890;-48
2021/12/06 03:34:13;;;;;;;18.27;3.90;;;;;;;23.45;50.31;98846.56;7312323;19;130396;-49
2021/12/06 03:36:39;;;;;;;20.65;3.78;;;;;;;23.40;50.39;98843.63;7315847;19;130483;-54
2021/12/06 03:39:09;;;;;;;46.20;6.90;;;;;;;23.29;51.23;98854.47;7312357;19;130652;-48
2021/12/06 03:41:35;;;;;;;29.13;4.85;;;;;;;23.22;50.80;98861.34;7314517;19;129585;-46
2021/12/06 03:44:06;;;;;;;16.85;3.70;;;;;;;23.18;51.28;98867.91;7310289;19;155513;-48
2021/12/06 03:46:33;;;;;;;32.00;5.32;;;;;;;23.13;51.71;98867.59;7314213;19;130387;-47
2021/12/06 03:48:59;;;;;;;42.55;6.18;;;;;;;23.09;51.37;98868.91;7307238;19;130173;-45
2021/12/06 03:51:24;;;;;;;21.38;4.30;;;;;;;23.07;52.02;98868.25;7314601;19;129189;-47
2021/12/06 03:53:50;;;;;;;29.55;6.43;;;;;;;23.08;51.78;98869.88;7309683;19;129826;-49
2021/12/06 03:56:15;;;;;;;18.75;3.72;;;;;;;23.20;51.21;98858.88;7311025;19;143107;-48
2021/12/06 03:58:44;;;;;;;30.02;5.60;;;;;;;23.45;50.48;98857.06;7309499;19;131369;-45
2021/12/06 04:01:10;;;;;;;20.80;3.92;;;;;;;23.83;49.73;98858.84;7314290;19;129578;-45
2021/12/06 04:03:36;;;;;;;48.95;7.53;;;;;;;24.27;48.74;98859.94;7309400;19;131752;-48
2021/12/06 04:06:04;;;;;;;17.52;3.70;;;;;;;24.81;47.49;98862.50;7309491;19;130325;-46
2021/12/06 04:08:29;;;;;;;28.45;4.70;;;;;;;25.32;45.69;98866.94;7312908;19;130016;-47
2021/12/06 04:10:55;;;;;;;33.58;5.28;;;;;;;25.77;44.83;98872.00;7302854;19;130109;-51
2021/12/06 04:13:21;;;;;;;28.88;4.95;;;;;;;26.16;43.92;98869.88;7312639;19;131004;-51
2021/12/06 04:15:47;;;;;;;44.40;7.03;;;;;;;26.49;43.36;98867.56;7302372;19;130038;-49
2021/12/06 04:18:12;;;;;;;19.90;3.80;;;;;;;26.81;42.78;98872.31;7310027;19;129201;-45
2021/12/06 04:20:38;;;;;;;63.78;8.40;;;;;;;27.05;42.40;98884.28;7312134;19;129535;-47
2021/12/06 04:23:06;;;;;;;23.52;4.22;;;;;;;27.28;41.37;98892.81;7310970;19;131805;-44
2021/12/06 04:28:14;;;;;;;19.48;4.03;;;;;;;27.41;40.87;98896.34;7311658;19;128987;-50
2021/12/06 04:30:40;;;;;;;30.85;4.72;;;;;;;27.44;41.23;98895.13;7308210;19;130535;-47
2021/12/06 04:33:06;;;;;;;17.13;3.83;;;;;;;27.31;41.34;98895.06;7314084;19;129413;-47
2021/12/06 04:35:34;;;;;;;23.73;4.57;;;;;;;27.20;42.08;98899.03;7308142;19;130727;-48
2021/12/06 04:37:59;;;;;;;24.13;4.53;;;;;;;26.99;42.37;98901.69;7307257;19;129290;-50
2021/12/06 04:40:27;;;;;;;37.60;6.17;;;;;;;26.76;42.52;98901.09;7311648;19;129292;-49
2021/12/06 04:42:53;;;;;;;23.50;4.55;;;;;;;26.56;43.16;98911.44;7308394;19;129939;-46
2021/12/06 04:45:18;;;;;;;23.33;4.50;;;;;;;26.26;43.35;98904.63;7308836;19;128988;-49
2021/12/06 04:47:43;;;;;;;15.23;3.90;;;;;;;26.03;44.65;98911.06;7307913;19;154546;-47
2021/12/06 04:50:11;;;;;;;22.90;4.63;;;;;;;25.81;45.16;98914.59;7311172;19;129746;-51
2021/12/06 04:52:38;;;;;;;32.67;5.68;;;;;;;25.60;45.17;98917.97;7307442;19;129093;-48
2021/12/06 04:55:11;;;;;;;20.88;4.57;;;;;;;25.35;45.38;98919.22;7310109;19;130608;-48
2021/12/06 04:57:41;;;;;;;35.75;6.28;;;;;;;25.17;46.04;98926.63;7307394;19;129196;-46
2021/12/06 05:00:09;;;;;;;10.13;3.30;;;;;;;24.97;47.17;98925.47;7311474;19;128992;-47
2021/12/06 05:02:37;;;;;;;23.40;4.65;;;;;;;24.78;47.62;98928.56;7308426;19;130184;-51
2021/12/06 05:05:09;;;;;;;17.63;3.83;;;;;;;24.54;47.81;98907.69;7307942;19;132059;-51
2021/12/06 05:07:39;;;;;;;42.63;7.18;;;;;;;24.46;48.20;98933.03;7308702;19;129461;-47
2021/12/06 05:10:07;;;;;;;13.55;3.67;;;;;;;24.32;48.74;98936.41;7309976;19;129568;-48
2021/12/06 05:12:33;;;;;;;31.83;5.45;;;;;;;24.20;48.85;98931.72;7311186;19;132795;-48
2021/12/06 05:14:59;;;;;;;17.55;4.55;;;;;;;24.09;48.71;98940.00;7303169;19;129759;-49
2021/12/06 05:17:26;;;;;;;47.97;7.80;;;;;;;23.96;49.16;98934.44;7304351;19;129265;-47
2021/12/06 05:19:52;;;;;;;34.38;6.15;;;;;;;23.92;49.49;98933.97;7309787;19;129392;-51
2021/12/06 05:22:18;;;;;;;23.07;4.43;;;;;;;23.77;49.65;98935.66;7309610;19;129201;-53
2021/12/06 05:24:43;;;;;;;18.73;4.13;;;;;;;23.77;50.35;98946.16;7309298;19;130727;-50
2021/12/06 05:27:09;;;;;;;13.70;3.85;;;;;;;23.73;50.11;98950.13;7305266;19;129142;-49
2021/12/06 05:29:35;;;;;;;27.77;5.20;;;;;;;23.62;50.88;98953.09;7309724;19;129289;-53
2021/12/06 05:32:02;;;;;;;32.22;5.32;;;;;;;23.61;50.51;98950.63;7310957;19;129128;-49
2021/12/06 05:34:33;;;;;;;;;;;;;;;23.53;50.84;98954.09;7306846;19;130425;-50
2021/12/06 05:36:59;;;;;;;26.58;5.38;;;;;;;23.51;50.88;98960.50;7304508;19;129769;-54
2021/12/06 05:39:30;;;;;;;25.92;5.32;;;;;;;23.46;50.52;98961.00;7310365;19;129400;-53
2021/12/06 05:41:57;;;;;;;21.75;5.00;;;;;;;23.42;51.23;98972.78;7305978;19;130119;-48
2021/12/06 05:44:22;;;;;;;33.35;5.95;;;;;;;23.40;51.27;98973.97;7306080;19;131302;-53
2021/12/06 05:46:48;;;;;;;23.58;4.65;;;;;;;23.38;51.23;98982.00;7306608;19;155042;-50
2021/12/06 05:49:13;;;;;;;27.83;5.80;;;;;;;23.37;51.52;98980.34;7303876;19;154489;-45
2021/12/06 05:51:38;;;;;;;15.23;3.55;;;;;;;23.31;51.59;98991.50;7306344;19;158328;-46
2021/12/06 05:54:03;;;;;;;23.15;4.30;;;;;;;23.22;51.18;98988.03;7306029;19;144817;-50
2021/12/06 05:56:29;;;;;;;48.95;8.93;;;;;;;23.19;51.15;98982.28;7305903;19;148474;-51
2021/12/06 05:58:54;;;;;;;26.20;5.33;;;;;;;23.24;51.80;98990.50;7300986;19;130124;-52
2021/12/06 06:01:23;;;;;;;12.00;3.60;;;;;;;23.26;51.44;98985.91;7308911;19;158777;-44
2021/12/06 06:03:49;;;;;;;45.22;8.98;;;;;;;23.32;50.88;98992.34;7301676;19;130439;-49
2021/12/06 06:06:14;;;;;;;19.02;4.22;;;;;;;23.42;51.18;98992.97;7306264;19;155247;-51
2021/12/06 06:08:39;;;;;;;23.55;4.95;;;;;;;23.43;50.63;98982.31;7309432;19;154595;-52
2021/12/06 06:11:05;;;;;;;23.50;4.65;;;;;;;23.70;49.95;99008.16;7307262;19;131458;-49
2021/12/06 06:13:30;;;;;;;24.25;4.63;;;;;;;23.82;49.82;99012.09;7307422;19;159085;-51
2021/12/06 06:15:56;;;;;;;18.58;4.10;;;;;;;23.99;49.04;99008.47;7306491;19;141789;-46
2021/12/06 06:18:21;;;;;;;27.37;5.63;;;;;;;24.17;48.94;99014.31;7305765;19;129342;-47
2021/12/06 06:20:50;;;;;;;45.95;8.10;;;;;;;24.30;48.54;99004.06;7282418;19;158182;-50
2021/12/06 06:23:16;;;;;;;50.92;8.30;;;;;;;24.44;48.03;99016.47;7288970;19;131725;-53
2021/12/06 06:25:41;;;;;;;24.92;4.72;;;;;;;24.54;48.35;99013.66;7304037;19;130118;-49
2021/12/06 06:28:07;;;;;;;20.88;4.35;;;;;;;24.66;47.71;99014.09;7294593;19;154610;-46
2021/12/06 06:30:33;;;;;;;35.92;6.90;;;;;;;24.73;47.31;99020.28;7303059;19;130385;-47
2021/12/06 06:32:58;;;;;;;55.70;11.30;;;;;;;24.78;47.13;99031.09;7295290;19;130373;-48
2021/12/06 06:35:24;;;;;;;32.17;5.90;;;;;;;24.89;47.53;99022.84;7297793;19;129278;-47
2021/12/06 06:37:49;;;;;;;19.90;4.33;;;;;;;24.97;47.31;99020.16;7304897;19;129462;-51
2021/12/06 06:40:21;;;;;;;16.00;4.05;;;;;;;25.00;46.66;99025.88;7309924;19;130193;-51
2021/12/06 06:42:47;;;;;;;44.42;7.97;;;;;;;25.01;46.30;99017.00;7289090;19;159080;-47
2021/12/06 06:45:15;;;;;;;33.53;6.13;;;;;;;25.07;46.47;99041.78;7303492;19;129497;-49
2021/12/06 06:47:41;;;;;;;22.30;4.38;;;;;;;25.04;46.92;99021.09;7307759;19;130025;-50
2021/12/06 06:50:07;;;;;;;19.10;4.70;;;;;;;25.07;46.61;99026.00;7292435;19;158896;-48
2021/12/06 06:52:33;;;;;;;33.58;6.03;;;;;;;25.14;46.66;99037.47;7307768;19;130916;-49
2021/12/06 06:54:59;;;;;;;29.08;5.32;;;;;;;24.99;46.42;99029.50;7304156;19;154039;-51
2021/12/06 06:57:25;;;;;;;19.55;4.35;;;;;;;24.95;47.37;99048.44;7297925;19;130085;-50
2021/12/06 06:59:51;;;;;;;26.45;5.05;;;;;;;24.82;47.63;99048.19;7307170;19;131061;-50
2021/12/06 07:02:16;;;;;;;22.10;4.63;;;;;;;24.70;47.86;99044.31;7288260;19;129796;-54
2021/12/06 07:04:42;;;;;;;32.07;6.00;;;;;;;24.60;48.24;99049.75;7304630;19;129028;-46
2021/12/06 07:07:07;;;;;;;21.10;4.67;;;;;;;24.51;47.98;99044.72;7297915;19;130968;-55
2021/12/06 07:09:33;;;;;;;20.55;4.65;;;;;;;24.48;47.86;99051.94;7306129;19;158386;-48
2021/12/06 07:11:59;;;;;;;27.88;5.28;;;;;;;24.47;48.61;99060.00;7292481;19;149308;-50
2021/12/06 07:14:25;;;;;;;42.67;7.22;;;;;;;24.46;48.65;99059.16;7300559;19;129577;-45
2021/12/06 07:16:52;;;;;;;73.40;11.70;;;;;;;24.48;48.29;99066.88;7303738;19;129059;-49
2021/12/06 07:19:17;;;;;;;26.38;4.95;;;;;;;24.44;48.70;99073.50;7294274;19;129742;-47
2021/12/06 07:21:43;;;;;;;6.43;2.85;;;;;;;24.48;48.80;99083.47;7307026;19;130105;-44
2021/12/06 07:24:09;;;;;;;17.13;3.70;;;;;;;24.48;48.53;99079.22;7292999;19;129525;-50
2021/12/06 07:26:35;;;;;;;30.03;5.10;;;;;;;24.48;48.32;99081.84;7305661;19;129296;-50
2021/12/06 07:29:01;;;;;;;17.93;3.90;;;;;;;24.48;47.93;99084.47;7307947;19;130902;-51
2021/12/06 07:31:26;;;;;;;28.95;5.88;;;;;;;24.49;48.63;99092.19;7304779;19;131136;-48
2021/12/06 07:33:53;;;;;;;43.83;8.07;;;;;;;24.52;48.14;99098.91;7304772;19;129037;-50
2021/12/06 07:36:22;;;;;;;27.90;5.53;;;;;;;24.48;48.33;99099.25;7303981;19;129713;-51
2021/12/06 07:38:47;;;;;;;37.97;7.88;;;;;;;24.43;44.77;99096.31;7302195;19;130532;-47
2021/12/06 07:41:15;;;;;;;26.02;5.93;;;;;;;24.43;44.62;99101.56;7305118;19;149756;-51
2021/12/06 07:43:40;;;;;;;35.10;7.30;;;;;;;24.43;45.54;99101.56;7303892;19;129713;-49
2021/12/06 07:46:08;;;;;;;27.42;6.22;;;;;;;24.46;45.72;99095.97;7309922;19;144675;-48
2021/12/06 07:48:33;;;;;;;25.50;5.30;;;;;;;24.48;45.38;99099.25;7312497;19;129580;-48
2021/12/06 07:51:00;;;;;;;26.02;5.70;;;;;;;24.48;45.18;99108.13;7312318;19;130037;-52
2021/12/06 07:53:27;;;;;;;39.07;7.53;;;;;;;24.48;45.91;99105.50;7312419;19;129755;-52
2021/12/06 07:55:52;;;;;;;24.30;5.47;;;;;;;24.46;45.29;99111.72;7310638;19;129732;-48
2021/12/06 07:58:18;;;;;;;25.38;6.07;;;;;;;24.53;45.26;99105.81;7310795;19;139271;-53
2021/12/06 08:03:12;;;;;;;20.30;4.70;;;;;;;24.63;45.00;99114.28;7309026;19;129212;-48
2021/12/06 08:05:41;;;;;;;38.97;6.95;;;;;;;24.62;44.81;99120.56;7309590;19;129219;-49
2021/12/06 08:08:09;;;;;;;30.02;6.30;;;;;;;24.67;44.90;99112.97;7308150;19;130403;-47
2021/12/06 08:10:38;;;;;;;43.17;6.90;;;;;;;24.72;44.96;99132.53;7307244;19;140867;-49
2021/12/06 08:13:04;;;;;;;31.23;6.28;;;;;;;24.76;44.56;99135.66;7304012;19;130132;-50
2021/12/06 08:15:31;;;;;;;39.25;7.40;;;;;;;24.76;44.49;99138.28;7308550;19;129394;-49
2021/12/06 08:17:56;;;;;;;21.90;5.40;;;;;;;24.83;44.47;99139.22;7313104;19;129055;-50
2021/12/06 08:20:22;;;;;;;21.23;5.50;;;;;;;24.84;44.19;99140.88;7310226;19;130353;-49
2021/12/06 08:22:47;;;;;;;24.10;6.07;;;;;;;24.85;44.55;99153.00;7311537;19;130058;-53
2021/12/06 08:25:14;;;;;;;28.07;6.60;;;;;;;24.90;44.49;99151.53;7308253;19;154630;-50
2021/12/06 08:27:39;;;;;;;29.98;5.97;;;;;;;24.89;44.29;99156.97;7311909;19;129893;-51
2021/12/06 08:30:06;;;;;;;18.77;5.07;;;;;;;24.90;44.58;99151.53;7312724;19;129915;-51
2021/12/06 08:32:31;;;;;;;29.38;6.07;;;;;;;24.93;43.91;99160.88;7311983;19;129289;-50
2021/12/06 08:34:57;;;;;;;25.75;6.05;;;;;;;24.88;44.28;99144.78;7309276;19;129635;-51
2021/12/06 08:37:22;;;;;;;30.52;6.20;;;;;;;24.99;44.00;99166.25;7310760;19;158308;-52
2021/12/06 08:39:47;;;;;;;25.67;6.00;;;;;;;24.97;44.42;99168.25;7309549;19;129077;-48
2021/12/06 08:42:12;;;;;;;30.90;6.83;;;;;;;25.03;43.90;99167.56;7310091;19;140643;-51
2021/12/06 08:44:38;;;;;;;35.33;7.13;;;;;;;25.02;43.53;99163.31;7304004;19;151419;-50
2021/12/06 08:47:04;;;;;;;19.42;5.40;;;;;;;25.04;43.95;99157.88;7305872;19;150653;-48
2021/12/06 08:49:30;;;;;;;36.90;6.85;;;;;;;24.99;44.12;99157.56;7312617;19;129193;-51
2021/12/06 08:51:57;;;;;;;31.48;6.45;;;;;;;25.01;43.71;99169.53;7309700;19;129447;-51
2021/12/06 08:54:26;;;;;;;26.00;5.65;;;;;;;24.95;44.22;99153.63;7304271;19;130232;-51
2021/12/06 08:56:53;;;;;;;21.13;5.68;;;;;;;25.03;43.95;99178.09;7308362;19;130762;-52
2021/12/06 08:59:18;;;;;;;;;;;;;;;25.05;44.28;99172.66;7308816;19;129402;-47
2021/12/06 09:01:44;;;;;;;22.43;5.87;;;;;;;25.09;44.09;99177.38;7309978;19;129430;-51
2021/12/06 09:04:12;;;;;;;24.20;5.50;;;;;;;25.04;43.96;99171.81;7306201;19;144784;-54
2021/12/06 09:06:40;;;;;;;103.80;19.13;;;;;;;25.05;43.51;99175.28;7296439;19;130609;-51
2021/12/06 09:09:08;;;;;;;31.40;6.90;;;;;;;25.03;44.29;99187.78;7307333;19;132009;-48
2021/12/06 09:11:37;;;;;;;31.15;6.88;;;;;;;25.01;44.18;99190.59;7308613;19;129030;-48
2021/12/06 09:14:03;;;;;;;23.95;6.07;;;;;;;24.95;43.82;99191.28;7309833;19;129703;-48
2021/12/06 09:16:28;;;;;;;37.13;7.35;;;;;;;24.90;44.62;99192.78;7310045;19;129617;-47
2021/12/06 09:18:54;;;;;;;24.55;6.15;;;;;;;24.90;44.11;99198.03;7309034;19;129627;-48
2021/12/06 09:21:21;;;;;;;108.20;13.05;;;;;;;24.83;44.69;99192.63;7307700;19;154920;-49
2021/12/06 09:23:48;;;;;;;49.65;10.98;;;;;;;24.81;44.50;99193.81;7306421;19;130122;-54
2021/12/06 09:26:14;;;;;;;26.77;6.40;;;;;;;24.81;44.75;99194.59;7308540;19;130218;-50
2021/12/06 09:28:40;;;;;;;26.10;6.50;;;;;;;24.76;44.84;99190.88;7309956;19;129862;-52
2021/12/06 09:31:07;;;;;;;26.10;6.32;;;;;;;24.67;44.64;99181.31;7308246;19;129109;-49
2021/12/06 09:33:34;;;;;;;33.40;6.95;;;;;;;24.71;45.02;99193.19;7309662;19;128791;-47
2021/12/06 09:36:00;;;;;;;31.33;7.03;;;;;;;24.69;44.75;99201.25;7291906;19;129557;-49
2021/12/06 09:38:32;;;;;;;23.65;6.97;;;;;;;24.65;45.12;99199.06;7310485;19;130736;-49
2021/12/06 09:40:59;;;;;;;61.15;11.05;;;;;;;24.57;44.74;99175.44;7298880;19;129843;-47
2021/12/06 09:43:25;;;;;;;27.95;6.53;;;;;;;24.62;44.99;99194.16;7312099;19;129311;-47
2021/12/06 09:45:51;;;;;;;31.48;8.00;;;;;;;24.56;45.24;99194.84;7302714;19;134775;-48
2021/12/06 09:48:19;;;;;;;24.13;6.57;;;;;;;24.60;45.21;99198.75;7308414;19;130329;-48
2021/12/06 09:50:55;;;;;;;28.98;7.18;;;;;;;24.55;44.98;99198.44;7292887;19;129487;-50
2021/12/06 09:53:26;;;;;;;29.38;7.55;;;;;;;24.58;45.21;99203.38;7307218;19;130102;-51
2021/12/06 09:56:00;;;;;;;25.70;7.07;;;;;;;24.53;44.87;99200.44;7305217;19;130403;-49
2021/12/06 09:58:25;;;;;;;34.55;7.88;;;;;;;24.48;44.86;99202.75;7307354;19;130097;-51
2021/12/06 10:00:54;;;;;;;25.63;7.13;;;;;;;24.47;45.42;99201.91;7308514;19;130106;-48
2021/12/06 10:03:24;;;;;;;34.08;8.18;;;;;;;24.46;44.95;99206.34;7309597;19;131459;-47
2021/12/06 10:05:51;;;;;;;32.55;8.40;;;;;;;24.46;44.76;99206.34;7295553;19;129287;-45
2021/12/06 10:08:16;;;;;;;23.88;7.13;;;;;;;24.40;45.32;99199.13;7307703;19;129444;-47
2021/12/06 10:10:42;;;;;;;97.60;17.65;;;;;;;24.41;45.23;99197.34;7292323;19;129874;-47
2021/12/06 10:13:08;;;;;;;20.80;6.90;;;;;;;24.46;45.38;99201.09;7308406;19;128890;-51
2021/12/06 10:15:34;;;;;;;72.13;12.55;;;;;;;24.41;44.80;99192.88;7303415;19;129051;-47
2021/12/06 10:18:01;;;;;;;32.87;8.03;;;;;;;24.42;44.67;99202.41;7301778;19;131144;-52
2021/12/06 10:20:28;;;;;;;;;;;;;;;24.42;45.14;99201.59;7309811;19;129130;-52
2021/12/06 10:22:54;;;;;;;47.38;8.85;;;;;;;24.35;44.80;99198.81;7291384;19;130037;-45
2021/12/06 10:25:36;;;;;;;22.10;6.72;;;;;;;24.41;45.36;99207.84;7305574;19;130010;-47
2021/12/06 10:28:04;;;;;;;25.25;7.75;;;;;;;24.38;44.83;99208.97;7297909;19;130378;-50
2021/12/06 10:30:33;;;;;;;46.15;9.63;;;;;;;24.32;45.13;99188.66;7307331;19;129097;-49
2021/12/06 10:33:10;;;;;;;184.57;31.42;;;;;;;24.39;45.40;99204.56;7292100;19;129518;-53
2021/12/06 10:35:40;;;;;;;32.92;8.38;;;;;;;24.37;45.34;99202.09;7283204;19;130377;-50
2021/12/06 10:38:05;;;;;;;19.42;6.63;;;;;;;24.39;44.84;99205.34;7272969;19;130208;-53
2021/12/06 10:40:34;;;;;;;41.92;9.05;;;;;;;24.31;45.28;99192.25;7293423;19;131157;-49
2021/12/06 10:43:04;;;;;;;31.00;8.23;;;;;;;24.39;44.66;99204.56;7307484;19;130201;-47
2021/12/06 10:45:34;;;;;;;40.38;9.55;;;;;;;24.35;44.70;99204.06;7296534;19;130587;-50
2021/12/06 10:48:10;;;;;;;31.33;8.55;;;;;;;24.34;44.93;99199.81;7307670;19;129301;-49
2021/12/06 10:50:41;;;;;;;188.32;35.65;;;;;;;24.38;44.45;99198.47;7296718;19;129047;-52
2021/12/06 10:53:07;;;;;;;27.35;7.80;;;;;;;24.35;44.51;99198.81;7307736;19;129063;-48
2021/12/06 10:55:34;;;;;;;88.25;14.75;;;;;;;24.37;45.24;99203.91;7298675;19;131590;-44
2021/12/06 10:58:04;;;;;;;26.52;7.55;;;;;;;24.35;44.93;99209.31;7303365;19;129895;-45
2021/12/06 11:02:57;;;;;;;25.60;7.13;;;;;;;24.29;44.52;99188.97;7301246;19;129711;-47
2021/12/06 11:05:27;;;;;;;43.08;8.77;;;;;;;24.38;44.89;99208.97;7306210;19;129372;-45
2021/12/06 11:08:12;;;;;;;27.65;7.10;;;;;;;24.33;44.55;99206.03;7300706;19;129850;-48
2021/12/06 11:10:46;;;;;;;46.05;8.98;;;;;;;24.36;44.93;99204.91;7308991;19;130528;-46
2021/12/06 11:13:26;;;;;;;26.52;7.43;;;;;;;24.34;44.71;99206.88;7302976;19;132296;-49
2021/12/06 11:16:07;;;;;;;18.92;6.47;;;;;;;24.36;44.48;99203.06;7310517;19;130307;-49
2021/12/06 11:18:52;;;;;;;34.38;7.75;;;;;;;24.30;44.89;99201.13;7309423;19;130802;-46
2021/12/06 11:21:22;;;;;;;29.48;7.55;;;;;;;24.32;45.05;99204.41;7309265;19;129621;-46
2021/12/06 11:24:12;;;;;;;31.27;8.43;;;;;;;24.34;44.50;99202.44;7315322;19;137634;-47
2021/12/06 11:26:40;;;;;;;54.75;10.68;;;;;;;24.33;45.21;99203.41;7311874;19;131228;-48
2021/12/06 11:29:10;;;;;;;23.73;6.85;;;;;;;24.33;44.33;99206.03;7314771;19;144177;-46
2021/12/06 11:31:36;;;;;;;35.22;8.00;;;;;;;24.33;44.62;99210.47;7300570;19;129398;-51
2021/12/06 11:34:04;;;;;;;38.88;8.55;;;;;;;24.30;44.65;99203.75;7310870;19;129135;-54
2021/12/06 11:36:36;;;;;;;30.58;7.70;;;;;;;24.35;44.71;99209.31;7311900;19;129083;-48